Time;durP1;ratioP1;P1;durP2;ratioP2;P2;SDS_P1;SDS_P2;PMS_P1;PMS_P2;Temp;Humidity;BMP_temperature;BMP_pressure;BME280_temperature;BME280_humidity;BME280_pressure;Samples;Min_cycle;Max_cycle;Signal;HPM_P1;HPM_P2
2023/12/26 00:01:17;;;;;;;;;;;;;;;;;;5072866;28;19963;-85
2023/12/26 00:03:42;;;;;;;;;;;;;;;;;;5076122;28;20385;-86
2023/12/26 00:06:09;;;;;;;;;;;;;;;;;;5073814;28;19962;-86
2023/12/26 00:08:34;;;;;;;;;;;;;;;;;;5073477;28;19917;-86
2023/12/26 00:11:00;;;;;;;;;;;;;;;;;;5072529;28;20271;-86
2023/12/26 00:13:25;;;;;;;;;;;;;;;;;;5074989;28;19908;-85
2023/12/26 00:15:51;;;;;;;;;;;;;;;;;;5073393;28;19908;-85
2023/12/26 00:18:16;;;;;;;;;;;;;;;;;;5081305;28;20007;-86
2023/12/26 00:20:45;;;;;;;;;;;;;;;;;;5073758;28;19948;-85
2023/12/26 00:23:10;;;;;;;;;;;;;;;;;;5073650;28;19908;-87
2023/12/26 00:25:35;;;;;;;;;;;;;;;;;;5071739;28;19978;-86
2023/12/26 00:28:06;;;;;;;;;;;;;;;;;;5073197;28;19961;-85
2023/12/26 00:30:31;;;;;;;;;;;;;;;;;;5072735;28;19912;-86
2023/12/26 00:32:56;;;;;;;;;;;;;;;;;;5073065;28;20038;-85
2023/12/26 00:35:21;;;;;;;;;;;;;;;;;;5073190;28;19974;-85
2023/12/26 00:37:46;;;;;;;;;;;;;;;;;;5073227;28;19998;-84
2023/12/26 00:40:12;;;;;;;;;;;;;;;;;;5072980;28;20385;-85
2023/12/26 00:42:37;;;;;;;;;;;;;;;;;;5073250;28;20393;-85
2023/12/26 00:45:03;;;;;;;;;;;;;;;;;;5074595;28;19931;-85
2023/12/26 00:47:29;;;;;;;;;;;;;;;;;;5073207;28;20402;-85
2023/12/26 00:49:57;;;;;;;;;;;;;;;;;;5074331;28;19912;-85
2023/12/26 00:52:22;;;;;;;;;;;;;;;;;;5072823;28;19915;-85
2023/12/26 00:54:50;;;;;;;;;;;;;;;;;;5074835;28;19908;-84
2023/12/26 00:57:15;;;;;;;;;;;;;;;;;;5072944;28;19909;-85
2023/12/26 00:59:40;;;;;;;;;;;;;;;;;;5074380;28;19966;-85
2023/12/26 01:02:05;;;;;;;;;;;;;;;;;;5072860;28;20000;-85
2023/12/26 01:04:30;;;;;;;;;;;;;;;;;;5072983;28;19919;-85
2023/12/26 01:06:55;;;;;;;;;;;;;;;;;;5073654;28;19908;-85
2023/12/26 01:09:21;;;;;;;;;;;;;;;;;;5072186;28;19923;-86
2023/12/26 01:11:46;;;;;;;;;;;;;;;;;;5073802;28;19909;-85
2023/12/26 01:14:11;;;;;;;;;;;;;;;;;;5073889;28;19909;-84
2023/12/26 01:16:37;;;;;;;;;;;;;;;;;;5072481;28;19909;-85
2023/12/26 01:19:02;;;;;;;;;;;;;;;;;;5071833;28;19916;-85
2023/12/26 01:21:27;;;;;;;;;;;;;;;;;;5072422;28;19916;-86
2023/12/26 01:23:52;;;;;;;;;;;;;;;;;;5073448;28;20326;-85
2023/12/26 01:26:17;;;;;;;;;;;;;;;;;;5072279;28;19915;-85
2023/12/26 01:28:42;;;;;;;;;;;;;;;;;;5073040;28;19909;-86
2023/12/26 01:31:08;;;;;;;;;;;;;;;;;;5071884;28;19908;-84
2023/12/26 01:33:33;;;;;;;;;;;;;;;;;;5073429;28;19908;-85
2023/12/26 01:35:59;;;;;;;;;;;;;;;;;;5071978;28;19908;-85
2023/12/26 01:38:24;;;;;;;;;;;;;;;;;;5073164;28;19935;-85
2023/12/26 01:40:49;;;;;;;;;;;;;;;;;;5072982;28;19908;-85
2023/12/26 01:43:14;;;;;;;;;;;;;;;;;;5071755;28;19909;-86
2023/12/26 01:45:39;;;;;;;;;;;;;;;;;;5071807;28;20290;-85
2023/12/26 01:48:04;;;;;;;;;;;;;;;;;;5073105;28;20002;-85
2023/12/26 01:50:30;;;;;;;;;;;;;;;;;;5071738;28;19916;-85
2023/12/26 01:52:55;;;;;;;;;;;;;;;;;;5072860;28;20367;-85
2023/12/26 01:55:20;;;;;;;;;;;;;;;;;;5071971;28;19962;-85
2023/12/26 01:57:45;;;;;;;;;;;;;;;;;;5071537;28;19959;-85
2023/12/26 02:00:10;;;;;;;;;;;;;;;;;;5071350;28;19909;-85
2023/12/26 02:02:35;;;;;;;;;;;;;;;;;;5071306;28;19962;-85
2023/12/26 02:05:01;;;;;;;;;;;;;;;;;;5072773;28;19913;-86
2023/12/26 02:07:26;;;;;;;;;;;;;;;;;;5072885;28;19909;-86
2023/12/26 02:09:51;;;;;;;;;;;;;;;;;;5071354;28;20295;-85
2023/12/26 02:12:17;;;;;;;;;;;;;;;;;;5071370;28;19908;-85
2023/12/26 02:14:42;;;;;;;;;;;;;;;;;;5072565;28;19908;-85
2023/12/26 02:17:10;;;;;;;;;;;;;;;;;;5071261;28;19916;-85
2023/12/26 02:19:35;;;;;;;;;;;;;;;;;;5072238;28;19947;-85
2023/12/26 02:22:00;;;;;;;;;;;;;;;;;;5071201;28;20042;-84
2023/12/26 02:24:25;;;;;;;;;;;;;;;;;;5071230;28;19909;-84
2023/12/26 02:26:50;;;;;;;;;;;;;;;;;;5072348;28;19955;-85
2023/12/26 02:29:15;;;;;;;;;;;;;;;;;;5072372;28;19912;-85
2023/12/26 02:31:41;;;;;;;;;;;;;;;;;;5071038;28;19962;-85
2023/12/26 02:34:06;;;;;;;;;;;;;;;;;;5075762;28;19908;-86
2023/12/26 02:36:31;;;;;;;;;;;;;;;;;;5075497;28;20371;-85
2023/12/26 02:38:56;;;;;;;;;;;;;;;;;;5076660;28;20482;-85
2023/12/26 02:41:21;;;;;;;;;;;;;;;;;;5075119;28;19944;-86
2023/12/26 02:43:46;;;;;;;;;;;;;;;;;;5075199;28;19915;-84
2023/12/26 02:46:12;;;;;;;;;;;;;;;;;;5076407;28;19916;-84
2023/12/26 02:48:37;;;;;;;;;;;;;;;;;;5075303;28;19961;-85
2023/12/26 02:51:02;;;;;;;;;;;;;;;;;;5074733;28;19943;-85
2023/12/26 02:53:27;;;;;;;;;;;;;;;;;;5075195;28;19909;-86
2023/12/26 02:55:52;;;;;;;;;;;;;;;;;;5076304;28;19942;-85
2023/12/26 02:58:17;;;;;;;;;;;;;;;;;;5075232;28;19996;-85
2023/12/26 03:00:43;;;;;;;;;;;;;;;;;;5076197;28;19943;-84
2023/12/26 03:03:08;;;;;;;;;;;;;;;;;;5076380;28;19909;-85
2023/12/26 03:05:33;;;;;;;;;;;;;;;;;;5076383;28;20379;-85
2023/12/26 03:07:59;;;;;;;;;;;;;;;;;;5075438;28;20251;-84
2023/12/26 03:10:24;;;;;;;;;;;;;;;;;;5076001;28;19923;-83
2023/12/26 03:12:49;;;;;;;;;;;;;;;;;;5075104;28;19908;-85
2023/12/26 03:15:15;;;;;;;;;;;;;;;;;;5074856;28;19909;-85
2023/12/26 03:17:40;;;;;;;;;;;;;;;;;;5076425;28;19915;-85
2023/12/26 03:20:05;;;;;;;;;;;;;;;;;;5074880;28;20007;-85
2023/12/26 03:22:31;;;;;;;;;;;;;;;;;;5076531;28;20450;-85
2023/12/26 03:24:56;;;;;;;;;;;;;;;;;;5075009;28;20371;-85
2023/12/26 03:27:21;;;;;;;;;;;;;;;;;;5074919;28;19913;-84
2023/12/26 03:29:46;;;;;;;;;;;;;;;;;;5074328;28;19947;-85
2023/12/26 03:32:11;;;;;;;;;;;;;;;;;;5075533;28;19912;-85
2023/12/26 03:34:37;;;;;;;;;;;;;;;;;;5075349;28;19915;-85
2023/12/26 03:37:02;;;;;;;;;;;;;;;;;;5075397;28;19916;-84
2023/12/26 03:39:27;;;;;;;;;;;;;;;;;;5075569;28;19915;-85
2023/12/26 03:41:52;;;;;;;;;;;;;;;;;;5075501;28;19908;-85
2023/12/26 03:44:17;;;;;;;;;;;;;;;;;;5073071;28;20377;-85
2023/12/26 03:46:42;;;;;;;;;;;;;;;;;;5075214;28;19948;-84
2023/12/26 03:49:08;;;;;;;;;;;;;;;;;;5075310;28;19958;-85
2023/12/26 03:51:33;;;;;;;;;;;;;;;;;;5074996;28;19912;-84
2023/12/26 03:53:58;;;;;;;;;;;;;;;;;;5073916;28;19909;-85
2023/12/26 03:56:23;;;;;;;;;;;;;;;;;;5075108;28;19916;-86
2023/12/26 03:58:48;;;;;;;;;;;;;;;;;;5073520;28;19954;-85
2023/12/26 04:01:13;;;;;;;;;;;;;;;;;;5073196;28;20363;-85
2023/12/26 04:03:38;;;;;;;;;;;;;;;;;;5074443;28;19999;-85
2023/12/26 04:06:04;;;;;;;;;;;;;;;;;;5074730;28;20019;-84
2023/12/26 04:08:29;;;;;;;;;;;;;;;;;;5073112;28;19948;-84
2023/12/26 04:10:54;;;;;;;;;;;;;;;;;;5074149;28;20003;-84
2023/12/26 04:13:19;;;;;;;;;;;;;;;;;;5074669;28;20423;-85
2023/12/26 04:15:44;;;;;;;;;;;;;;;;;;5073017;28;19913;-85
2023/12/26 04:18:09;;;;;;;;;;;;;;;;;;5073135;28;19908;-83
2023/12/26 04:20:34;;;;;;;;;;;;;;;;;;5074052;28;19908;-84
2023/12/26 04:23:00;;;;;;;;;;;;;;;;;;5074164;28;19908;-85
2023/12/26 04:25:25;;;;;;;;;;;;;;;;;;5072732;28;19919;-84
2023/12/26 04:27:50;;;;;;;;;;;;;;;;;;5074053;28;20398;-85
2023/12/26 04:30:15;;;;;;;;;;;;;;;;;;5072420;28;19913;-85
2023/12/26 04:32:40;;;;;;;;;;;;;;;;;;5073852;28;19909;-85
2023/12/26 04:35:05;;;;;;;;;;;;;;;;;;5072701;28;19958;-85
2023/12/26 04:37:30;;;;;;;;;;;;;;;;;;5072585;28;19962;-84
2023/12/26 04:39:56;;;;;;;;;;;;;;;;;;5073671;28;19935;-82
2023/12/26 04:42:21;;;;;;;;;;;;;;;;;;5073890;28;19909;-85
2023/12/26 04:44:46;;;;;;;;;;;;;;;;;;5072468;28;19908;-85
2023/12/26 04:47:11;;;;;;;;;;;;;;;;;;5072351;28;19922;-84
2023/12/26 04:49:36;;;;;;;;;;;;;;;;;;5072165;28;20015;-84
2023/12/26 04:52:01;;;;;;;;;;;;;;;;;;5073368;28;20003;-85
2023/12/26 04:54:27;;;;;;;;;;;;;;;;;;5073584;28;19955;-84
2023/12/26 04:56:52;;;;;;;;;;;;;;;;;;5073143;28;20402;-84
2023/12/26 04:59:17;;;;;;;;;;;;;;;;;;5073428;28;20263;-85
2023/12/26 05:01:45;;;;;;;;;;;;;;;;;;5073014;28;20382;-85
2023/12/26 05:04:10;;;;;;;;;;;;;;;;;;5073370;28;20390;-85
2023/12/26 05:06:35;;;;;;;;;;;;;;;;;;5072083;28;19909;-84
2023/12/26 05:09:00;;;;;;;;;;;;;;;;;;5072072;28;19951;-85
2023/12/26 05:11:25;;;;;;;;;;;;;;;;;;5071812;28;19916;-87
2023/12/26 05:13:51;;;;;;;;;;;;;;;;;;5071976;28;19908;-85
2023/12/26 05:16:16;;;;;;;;;;;;;;;;;;5072960;28;19913;-85
2023/12/26 05:18:41;;;;;;;;;;;;;;;;;;5073004;28;19917;-84
2023/12/26 05:21:06;;;;;;;;;;;;;;;;;;5071658;28;19908;-85
2023/12/26 05:23:31;;;;;;;;;;;;;;;;;;5073038;28;20019;-84
2023/12/26 05:25:56;;;;;;;;;;;;;;;;;;5072957;28;20003;-84
2023/12/26 05:28:21;;;;;;;;;;;;;;;;;;5072670;28;20003;-84
2023/12/26 05:30:46;;;;;;;;;;;;;;;;;;5072590;28;19952;-84
2023/12/26 05:33:12;;;;;;;;;;;;;;;;;;5072605;28;20384;-86
2023/12/26 05:35:37;;;;;;;;;;;;;;;;;;5072647;28;19912;-84
2023/12/26 05:38:02;;;;;;;;;;;;;;;;;;5071454;28;20397;-84
2023/12/26 05:40:27;;;;;;;;;;;;;;;;;;5071399;28;19909;-85
2023/12/26 05:42:52;;;;;;;;;;;;;;;;;;5071410;28;19909;-84
2023/12/26 05:45:17;;;;;;;;;;;;;;;;;;5072391;28;19908;-84
2023/12/26 05:47:42;;;;;;;;;;;;;;;;;;5072455;28;20397;-84
2023/12/26 05:50:07;;;;;;;;;;;;;;;;;;5072430;28;19912;-84
2023/12/26 05:52:33;;;;;;;;;;;;;;;;;;5072416;28;19984;-85
2023/12/26 05:54:58;;;;;;;;;;;;;;;;;;5071378;28;19912;-84
2023/12/26 05:57:23;;;;;;;;;;;;;;;;;;5071262;28;20344;-83
2023/12/26 05:59:48;;;;;;;;;;;;;;;;;;5072389;28;19909;-85
2023/12/26 06:02:14;;;;;;;;;;;;;;;;;;5072114;28;19920;-85
2023/12/26 06:04:39;;;;;;;;;;;;;;;;;;5070997;28;19915;-84
2023/12/26 06:07:04;;;;;;;;;;;;;;;;;;5071731;28;19909;-84
2023/12/26 06:09:29;;;;;;;;;;;;;;;;;;5072137;28;19970;-84
2023/12/26 06:11:54;;;;;;;;;;;;;;;;;;5071149;28;20396;-85
2023/12/26 06:14:19;;;;;;;;;;;;;;;;;;5070951;28;19909;-84
2023/12/26 06:16:44;;;;;;;;;;;;;;;;;;5070963;28;19915;-84
2023/12/26 06:19:09;;;;;;;;;;;;;;;;;;5072161;28;19909;-85
2023/12/26 06:21:35;;;;;;;;;;;;;;;;;;5072029;28;19916;-84
2023/12/26 06:24:00;;;;;;;;;;;;;;;;;;5071080;28;19962;-85
2023/12/26 06:26:25;;;;;;;;;;;;;;;;;;5072271;28;19916;-84
2023/12/26 06:28:50;;;;;;;;;;;;;;;;;;5070968;28;19909;-84
2023/12/26 06:31:15;;;;;;;;;;;;;;;;;;5070743;28;19954;-85
2023/12/26 06:33:40;;;;;;;;;;;;;;;;;;5072136;28;20033;-84
2023/12/26 06:36:05;;;;;;;;;;;;;;;;;;5071965;28;19909;-84
2023/12/26 06:38:31;;;;;;;;;;;;;;;;;;5071956;28;19978;-84
2023/12/26 06:40:56;;;;;;;;;;;;;;;;;;5072437;28;19992;-84
2023/12/26 06:43:21;;;;;;;;;;;;;;;;;;5070686;28;20432;-85
2023/12/26 06:45:46;;;;;;;;;;;;;;;;;;5071829;28;19932;-84
2023/12/26 06:48:11;;;;;;;;;;;;;;;;;;5071874;28;19916;-84
2023/12/26 06:50:36;;;;;;;;;;;;;;;;;;5070561;28;20025;-84
2023/12/26 06:53:02;;;;;;;;;;;;;;;;;;5070902;28;19973;-84
2023/12/26 06:55:27;;;;;;;;;;;;;;;;;;5070620;28;19909;-84
2023/12/26 06:57:52;;;;;;;;;;;;;;;;;;5071855;28;19915;-84
2023/12/26 07:00:18;;;;;;;;;;;;;;;;;;5070572;28;19909;-84
2023/12/26 07:02:43;;;;;;;;;;;;;;;;;;5071868;28;19915;-84
2023/12/26 07:05:10;;;;;;;;;;;;;;;;;;5070536;28;22978;-84
2023/12/26 07:07:35;;;;;;;;;;;;;;;;;;5070693;28;19912;-85
2023/12/26 07:10:00;;;;;;;;;;;;;;;;;;5070084;28;19916;-84
2023/12/26 07:12:25;;;;;;;;;;;;;;;;;;5071651;28;19939;-84
2023/12/26 07:14:50;;;;;;;;;;;;;;;;;;5071556;28;19908;-84
2023/12/26 07:17:18;;;;;;;;;;;;;;;;;;5070507;28;20381;-84
2023/12/26 07:19:43;;;;;;;;;;;;;;;;;;5073318;28;19908;-85
2023/12/26 07:22:08;;;;;;;;;;;;;;;;;;5075056;28;19979;-84
2023/12/26 07:24:33;;;;;;;;;;;;;;;;;;5075233;28;20019;-85
2023/12/26 07:26:59;;;;;;;;;;;;;;;;;;5075438;28;19995;-84
2023/12/26 07:29:27;;;;;;;;;;;;;;;;;;5073716;28;19913;-84
2023/12/26 07:31:52;;;;;;;;;;;;;;;;;;5075071;28;19922;-85
2023/12/26 07:34:17;;;;;;;;;;;;;;;;;;5074017;28;20294;-84
2023/12/26 07:36:42;;;;;;;;;;;;;;;;;;5075032;28;19913;-84
2023/12/26 07:39:08;;;;;;;;;;;;;;;;;;5074929;28;19916;-84
2023/12/26 07:41:33;;;;;;;;;;;;;;;;;;5074699;28;19909;-83
2023/12/26 07:43:58;;;;;;;;;;;;;;;;;;5074996;28;20375;-84
2023/12/26 07:46:24;;;;;;;;;;;;;;;;;;5071475;28;19944;-84
2023/12/26 07:48:49;;;;;;;;;;;;;;;;;;5069000;28;19936;-84
2023/12/26 07:51:14;;;;;;;;;;;;;;;;;;5071300;28;19999;-84
2023/12/26 07:53:39;;;;;;;;;;;;;;;;;;5068598;28;19987;-84
2023/12/26 07:56:04;;;;;;;;;;;;;;;;;;5068772;28;19908;-84
2023/12/26 07:58:30;;;;;;;;;;;;;;;;;;5071109;28;19912;-85
2023/12/26 08:00:55;;;;;;;;;;;;;;;;;;5067350;28;19934;-84
2023/12/26 08:03:20;;;;;;;;;;;;;;;;;;5071703;28;19908;-85
2023/12/26 08:05:45;;;;;;;;;;;;;;;;;;5069796;28;19917;-84
2023/12/26 08:08:11;;;;;;;;;;;;;;;;;;5068055;28;19924;-86
2023/12/26 08:10:36;;;;;;;;;;;;;;;;;;5070817;28;19939;-85
2023/12/26 08:13:01;;;;;;;;;;;;;;;;;;5065869;28;20368;-84
2023/12/26 08:15:26;;;;;;;;;;;;;;;;;;5069864;28;20386;-83
2023/12/26 08:17:51;;;;;;;;;;;;;;;;;;5066296;28;19908;-83
2023/12/26 08:20:16;;;;;;;;;;;;;;;;;;5071824;28;20008;-85
2023/12/26 08:22:42;;;;;;;;;;;;;;;;;;5069013;28;20280;-86
2023/12/26 08:25:08;;;;;;;;;;;;;;;;;;5070208;28;19909;-84
2023/12/26 08:27:33;;;;;;;;;;;;;;;;;;5065922;28;19913;-83
2023/12/26 08:29:58;;;;;;;;;;;;;;;;;;5063663;28;19924;-84
2023/12/26 08:32:23;;;;;;;;;;;;;;;;;;5068487;28;19912;-83
2023/12/26 08:34:49;;;;;;;;;;;;;;;;;;5069141;28;19966;-85
2023/12/26 08:37:14;;;;;;;;;;;;;;;;;;5068608;28;19913;-84
2023/12/26 08:39:39;;;;;;;;;;;;;;;;;;5070003;28;19935;-85
2023/12/26 08:42:04;;;;;;;;;;;;;;;;;;5064040;28;20000;-84
2023/12/26 08:44:29;;;;;;;;;;;;;;;;;;5069904;28;19908;-84
2023/12/26 08:46:54;;;;;;;;;;;;;;;;;;5067784;28;20451;-84
2023/12/26 08:49:20;;;;;;;;;;;;;;;;;;5069722;28;19913;-85
2023/12/26 08:51:45;;;;;;;;;;;;;;;;;;5065531;28;19947;-84
2023/12/26 08:54:11;;;;;;;;;;;;;;;;;;5064036;28;19970;-84
2023/12/26 08:56:36;;;;;;;;;;;;;;;;;;5070725;28;20428;-84
2023/12/26 08:59:01;;;;;;;;;;;;;;;;;;5073526;28;20309;-84
2023/12/26 09:01:27;;;;;;;;;;;;;;;;;;5073204;28;19912;-85
2023/12/26 09:03:52;;;;;;;;;;;;;;;;;;5071970;28;19915;-84
2023/12/26 09:06:17;;;;;;;;;;;;;;;;;;5072037;28;20363;-85
2023/12/26 09:08:42;;;;;;;;;;;;;;;;;;5071957;28;19916;-85
2023/12/26 09:11:07;;;;;;;;;;;;;;;;;;5071859;28;19913;-85
2023/12/26 09:13:32;;;;;;;;;;;;;;;;;;5071782;28;19908;-84
2023/12/26 09:15:58;;;;;;;;;;;;;;;;;;5071671;28;19912;-85
2023/12/26 09:18:23;;;;;;;;;;;;;;;;;;5071780;28;19908;-84
2023/12/26 09:20:48;;;;;;;;;;;;;;;;;;5073737;28;19915;-86
2023/12/26 09:23:13;;;;;;;;;;;;;;;;;;5073643;28;19991;-85
2023/12/26 09:25:38;;;;;;;;;;;;;;;;;;5075726;28;19908;-85
2023/12/26 09:28:03;;;;;;;;;;;;;;;;;;5073988;28;20383;-84
2023/12/26 09:30:29;;;;;;;;;;;;;;;;;;5073279;28;19916;-85
2023/12/26 09:32:54;;;;;;;;;;;;;;;;;;5075267;28;19962;-85
2023/12/26 09:35:19;;;;;;;;;;;;;;;;;;5076029;28;19954;-85
2023/12/26 09:37:44;;;;;;;;;;;;;;;;;;5073488;28;19912;-85
2023/12/26 09:40:09;;;;;;;;;;;;;;;;;;5073586;28;19954;-85
2023/12/26 09:42:34;;;;;;;;;;;;;;;;;;5071262;28;20011;-86
2023/12/26 09:44:59;;;;;;;;;;;;;;;;;;5072891;28;20436;-84
2023/12/26 09:47:24;;;;;;;;;;;;;;;;;;5071371;28;19912;-85
2023/12/26 09:49:50;;;;;;;;;;;;;;;;;;5071266;28;20401;-86
2023/12/26 09:52:15;;;;;;;;;;;;;;;;;;5070945;28;20557;-87
2023/12/26 09:54:40;;;;;;;;;;;;;;;;;;5071040;28;20406;-85
2023/12/26 09:57:05;;;;;;;;;;;;;;;;;;5072609;28;20378;-88
2023/12/26 09:59:34;;;;;;;;;;;;;;;;;;5071362;28;19919;-87
2023/12/26 10:01:59;;;;;;;;;;;;;;;;;;5071307;28;20363;-87
2023/12/26 10:04:24;;;;;;;;;;;;;;;;;;5072063;28;20436;-87
2023/12/26 10:06:49;;;;;;;;;;;;;;;;;;5069536;28;20305;-86
2023/12/26 10:09:14;;;;;;;;;;;;;;;;;;5070779;28;20007;-86
2023/12/26 10:11:39;;;;;;;;;;;;;;;;;;5071920;28;19908;-86
2023/12/26 10:14:05;;;;;;;;;;;;;;;;;;5067418;28;19909;-87
2023/12/26 10:16:30;;;;;;;;;;;;;;;;;;5068330;28;19916;-87
2023/12/26 10:18:58;;;;;;;;;;;;;;;;;;5070930;28;19912;-86
2023/12/26 10:21:23;;;;;;;;;;;;;;;;;;5070817;28;19916;-86
2023/12/26 10:23:48;;;;;;;;;;;;;;;;;;5070829;28;20318;-87
2023/12/26 10:26:13;;;;;;;;;;;;;;;;;;5072049;28;19913;-87
2023/12/26 10:28:39;;;;;;;;;;;;;;;;;;5070640;28;20393;-86
2023/12/26 10:31:04;;;;;;;;;;;;;;;;;;5070772;28;19960;-87
2023/12/26 10:33:29;;;;;;;;;;;;;;;;;;5071768;28;19915;-86
2023/12/26 10:35:54;;;;;;;;;;;;;;;;;;5072156;28;19912;-86
2023/12/26 10:38:19;;;;;;;;;;;;;;;;;;5072187;28;20428;-86
2023/12/26 10:40:44;;;;;;;;;;;;;;;;;;5070361;28;19916;-86
2023/12/26 10:43:09;;;;;;;;;;;;;;;;;;5071680;28;19908;-86
2023/12/26 10:45:35;;;;;;;;;;;;;;;;;;5071737;28;19999;-86
2023/12/26 10:48:00;;;;;;;;;;;;;;;;;;5070489;28;19909;-86
2023/12/26 10:50:25;;;;;;;;;;;;;;;;;;5071650;28;19924;-86
2023/12/26 10:53:05;;;;;;;;;;;;;;;;;;5071695;28;19909;-86
2023/12/26 10:55:30;;;;;;;;;;;;;;;;;;5074288;28;19919;-86
2023/12/26 13:52:48;;;;;;;;;;;;;;;;;;5072364;28;19911;-85
2023/12/26 13:55:15;;;;;;;;;;;;;;;;;;5071179;28;19912;-86
2023/12/26 13:57:41;;;;;;;;;;;;;;;;;;5072771;28;19908;-86
2023/12/26 14:00:06;;;;;;;;;;;;;;;;;;5071887;28;19920;-86
2023/12/26 14:02:31;;;;;;;;;;;;;;;;;;5071722;28;19908;-86
2023/12/26 14:04:56;;;;;;;;;;;;;;;;;;5073037;28;19913;-86
2023/12/26 14:07:22;;;;;;;;;;;;;;;;;;5073086;28;19995;-86
2023/12/26 14:09:47;;;;;;;;;;;;;;;;;;5071271;28;20321;-86
2023/12/26 14:12:12;;;;;;;;;;;;;;;;;;5071646;28;19909;-86
2023/12/26 14:14:37;;;;;;;;;;;;;;;;;;5071785;28;20427;-86
2023/12/26 14:17:03;;;;;;;;;;;;;;;;;;5073108;28;19943;-86
2023/12/26 14:19:28;;;;;;;;;;;;;;;;;;5072665;28;19908;-85
2023/12/26 14:21:53;;;;;;;;;;;;;;;;;;5072428;28;19916;-86
2023/12/26 14:24:18;;;;;;;;;;;;;;;;;;5073210;28;19909;-86
2023/12/26 14:26:43;;;;;;;;;;;;;;;;;;5072763;28;19916;-86
2023/12/26 14:29:08;;;;;;;;;;;;;;;;;;5070370;28;19957;-86
2023/12/26 14:31:35;;;;;;;;;;;;;;;;;;5072407;28;19992;-86
2023/12/26 14:34:00;;;;;;;;;;;;;;;;;;5071229;28;20272;-86
2023/12/26 14:36:27;;;;;;;;;;;;;;;;;;5072442;28;19920;-86
2023/12/26 14:38:52;;;;;;;;;;;;;;;;;;5072516;28;19909;-86
2023/12/26 14:41:17;;;;;;;;;;;;;;;;;;5072413;28;19915;-86
2023/12/26 14:43:43;;;;;;;;;;;;;;;;;;5072287;28;19956;-86
2023/12/26 14:46:08;;;;;;;;;;;;;;;;;;5071056;28;19908;-86
2023/12/26 14:48:33;;;;;;;;;;;;;;;;;;5071935;28;19962;-86
2023/12/26 14:50:58;;;;;;;;;;;;;;;;;;5070525;28;19912;-86
2023/12/26 14:53:23;;;;;;;;;;;;;;;;;;5071723;28;20428;-86
2023/12/26 14:55:48;;;;;;;;;;;;;;;;;;5071443;28;19909;-86
2023/12/26 14:58:13;;;;;;;;;;;;;;;;;;5073497;28;19943;-86
2023/12/26 15:00:38;;;;;;;;;;;;;;;;;;5072179;28;19916;-86
2023/12/26 15:03:04;;;;;;;;;;;;;;;;;;5070529;28;19916;-86
2023/12/26 15:05:33;;;;;;;;;;;;;;;;;;5072514;28;19909;-86
2023/12/26 15:07:58;;;;;;;;;;;;;;;;;;5071861;28;19935;-86
2023/12/26 15:10:24;;;;;;;;;;;;;;;;;;5071606;28;19913;-86
2023/12/26 15:12:49;;;;;;;;;;;;;;;;;;5071880;28;19908;-85
2023/12/26 15:15:14;;;;;;;;;;;;;;;;;;5070401;28;19948;-86
2023/12/26 15:17:39;;;;;;;;;;;;;;;;;;5071319;28;20001;-86
2023/12/26 15:20:05;;;;;;;;;;;;;;;;;;5070761;28;19909;-86
2023/12/26 15:22:30;;;;;;;;;;;;;;;;;;5070982;28;19909;-86
2023/12/26 15:24:55;;;;;;;;;;;;;;;;;;5071222;28;19913;-86
2023/12/26 15:27:20;;;;;;;;;;;;;;;;;;5071253;28;19917;-86
2023/12/26 15:29:46;;;;;;;;;;;;;;;;;;5070945;28;19940;-86
2023/12/26 15:32:11;;;;;;;;;;;;;;;;;;5072428;28;20403;-86
2023/12/26 15:34:37;;;;;;;;;;;;;;;;;;5074963;28;19940;-86
2023/12/26 15:37:02;;;;;;;;;;;;;;;;;;5073571;28;20437;-86
2023/12/26 15:39:27;;;;;;;;;;;;;;;;;;5071748;28;20405;-86
2023/12/26 15:41:52;;;;;;;;;;;;;;;;;;5074787;28;19977;-87
2023/12/26 15:44:17;;;;;;;;;;;;;;;;;;5076149;28;19908;-86
2023/12/26 15:46:42;;;;;;;;;;;;;;;;;;5073760;28;20050;-86
2023/12/26 15:49:07;;;;;;;;;;;;;;;;;;5074478;28;19909;-87
2023/12/26 15:51:32;;;;;;;;;;;;;;;;;;5074241;28;19912;-86
2023/12/26 15:54:00;;;;;;;;;;;;;;;;;;5075618;28;19913;-86
2023/12/26 15:56:28;;;;;;;;;;;;;;;;;;5074356;28;19912;-86
2023/12/26 15:58:53;;;;;;;;;;;;;;;;;;5074269;28;19935;-86
2023/12/26 16:01:20;;;;;;;;;;;;;;;;;;5075491;28;19908;-86
2023/12/26 16:03:46;;;;;;;;;;;;;;;;;;5074476;28;19989;-86
2023/12/26 16:06:11;;;;;;;;;;;;;;;;;;5074108;28;19908;-86
2023/12/26 16:08:36;;;;;;;;;;;;;;;;;;5073757;28;20367;-86
2023/12/26 16:11:01;;;;;;;;;;;;;;;;;;5075075;28;19912;-86
2023/12/26 16:13:27;;;;;;;;;;;;;;;;;;5075048;28;19912;-86
2023/12/26 16:15:52;;;;;;;;;;;;;;;;;;5073913;28;20336;-86
2023/12/26 16:18:17;;;;;;;;;;;;;;;;;;5075302;28;19916;-86
2023/12/26 16:20:42;;;;;;;;;;;;;;;;;;5073350;28;19924;-86
2023/12/26 16:23:09;;;;;;;;;;;;;;;;;;5075304;28;19912;-86
2023/12/26 16:25:35;;;;;;;;;;;;;;;;;;5073922;28;19914;-86
2023/12/26 16:28:00;;;;;;;;;;;;;;;;;;5073616;28;19951;-85
2023/12/26 16:30:25;;;;;;;;;;;;;;;;;;5074457;28;19913;-86
2023/12/26 16:32:50;;;;;;;;;;;;;;;;;;5073761;28;20426;-85
2023/12/26 16:35:16;;;;;;;;;;;;;;;;;;5073689;28;20367;-85
2023/12/26 16:37:41;;;;;;;;;;;;;;;;;;5073332;28;20011;-86
2023/12/26 16:40:07;;;;;;;;;;;;;;;;;;5073288;28;19955;-85
2023/12/26 16:42:33;;;;;;;;;;;;;;;;;;5073165;28;20001;-86
2023/12/26 16:44:58;;;;;;;;;;;;;;;;;;5073497;28;19908;-87
2023/12/26 16:47:23;;;;;;;;;;;;;;;;;;5074819;28;19909;-86
2023/12/26 16:49:49;;;;;;;;;;;;;;;;;;5073096;28;19920;-85
2023/12/26 16:52:14;;;;;;;;;;;;;;;;;;5073445;28;19909;-86
2023/12/26 16:54:39;;;;;;;;;;;;;;;;;;5074658;28;19909;-85
2023/12/26 16:57:04;;;;;;;;;;;;;;;;;;5074583;28;19908;-86
2023/12/26 16:59:32;;;;;;;;;;;;;;;;;;5074210;28;19915;-85
2023/12/26 17:01:57;;;;;;;;;;;;;;;;;;5074453;28;19909;-86
2023/12/26 17:04:23;;;;;;;;;;;;;;;;;;5072890;28;20333;-86
2023/12/26 17:06:48;;;;;;;;;;;;;;;;;;5073958;28;19983;-86
2023/12/26 17:09:13;;;;;;;;;;;;;;;;;;5072640;28;19916;-86
2023/12/26 17:11:38;;;;;;;;;;;;;;;;;;5072445;28;20408;-86
2023/12/26 17:14:03;;;;;;;;;;;;;;;;;;5073983;28;19916;-86
2023/12/26 17:16:29;;;;;;;;;;;;;;;;;;5073733;28;20497;-85
2023/12/26 17:18:54;;;;;;;;;;;;;;;;;;5073601;28;19915;-85
2023/12/26 17:21:19;;;;;;;;;;;;;;;;;;5073232;28;19909;-86
2023/12/26 17:23:44;;;;;;;;;;;;;;;;;;5072813;28;19928;-86
2023/12/26 17:26:09;;;;;;;;;;;;;;;;;;5070244;28;19919;-85
2023/12/26 17:28:34;;;;;;;;;;;;;;;;;;5067077;28;20367;-85
2023/12/26 17:31:00;;;;;;;;;;;;;;;;;;5071856;28;20387;-86
2023/12/26 17:33:25;;;;;;;;;;;;;;;;;;5073423;28;20016;-85
2023/12/26 17:35:50;;;;;;;;;;;;;;;;;;5072243;28;19908;-85
2023/12/26 17:38:15;;;;;;;;;;;;;;;;;;5072270;28;19909;-85
2023/12/26 17:40:41;;;;;;;;;;;;;;;;;;5071906;28;19909;-87
2023/12/26 17:43:06;;;;;;;;;;;;;;;;;;5073173;28;19937;-87
2023/12/26 17:45:31;;;;;;;;;;;;;;;;;;5073141;28;19916;-87
2023/12/26 17:47:56;;;;;;;;;;;;;;;;;;5072932;28;19913;-85
2023/12/26 17:50:22;;;;;;;;;;;;;;;;;;5071284;28;20371;-86
2023/12/26 17:52:47;;;;;;;;;;;;;;;;;;5071545;28;19915;-86
2023/12/26 17:55:14;;;;;;;;;;;;;;;;;;5072169;28;20015;-86
2023/12/26 17:57:39;;;;;;;;;;;;;;;;;;5073330;28;19916;-86
2023/12/26 18:00:05;;;;;;;;;;;;;;;;;;5073388;28;19909;-87
2023/12/26 18:02:30;;;;;;;;;;;;;;;;;;5072903;28;19909;-85
2023/12/26 18:04:56;;;;;;;;;;;;;;;;;;5072341;28;19951;-86
2023/12/26 18:07:33;;;;;;;;;;;;;;;;;;5076678;28;19908;-86
2023/12/26 18:12:52;;;;;;;;;;;;;;;;;;5068075;28;20003;-87
2023/12/26 18:15:17;;;;;;;;;;;;;;;;;;5073953;28;19908;-85
2023/12/26 18:17:42;;;;;;;;;;;;;;;;;;5072050;28;19969;-85
2023/12/26 18:20:09;;;;;;;;;;;;;;;;;;5073484;28;19909;-86
2023/12/26 18:22:34;;;;;;;;;;;;;;;;;;5073123;28;19908;-86
2023/12/26 18:24:59;;;;;;;;;;;;;;;;;;5073418;28;19916;-85
2023/12/26 18:27:24;;;;;;;;;;;;;;;;;;5073111;28;19908;-85
2023/12/26 18:29:49;;;;;;;;;;;;;;;;;;5072918;28;19919;-86
2023/12/26 18:32:14;;;;;;;;;;;;;;;;;;5072702;28;19912;-86
2023/12/26 18:34:39;;;;;;;;;;;;;;;;;;5072990;28;20282;-86
2023/12/26 18:37:05;;;;;;;;;;;;;;;;;;5072771;28;20003;-85
2023/12/26 18:39:30;;;;;;;;;;;;;;;;;;5072691;28;19964;-86
2023/12/26 18:41:55;;;;;;;;;;;;;;;;;;5072630;28;19920;-85
2023/12/26 18:44:20;;;;;;;;;;;;;;;;;;5073353;28;19909;-86
2023/12/26 18:46:45;;;;;;;;;;;;;;;;;;5071615;28;19912;-85
2023/12/26 18:49:11;;;;;;;;;;;;;;;;;;5071928;28;19966;-84
2023/12/26 18:51:36;;;;;;;;;;;;;;;;;;5069556;28;19972;-85
2023/12/26 18:54:01;;;;;;;;;;;;;;;;;;5071883;28;19957;-85
2023/12/26 18:56:28;;;;;;;;;;;;;;;;;;5070737;28;19908;-85
2023/12/26 18:58:53;;;;;;;;;;;;;;;;;;5073460;28;19915;-85
2023/12/26 19:01:18;;;;;;;;;;;;;;;;;;5073193;28;19909;-85
2023/12/26 19:03:46;;;;;;;;;;;;;;;;;;5072677;28;20003;-85
2023/12/26 19:06:11;;;;;;;;;;;;;;;;;;5072820;28;19908;-85
2023/12/26 19:08:36;;;;;;;;;;;;;;;;;;5072912;28;19943;-85
2023/12/26 19:11:01;;;;;;;;;;;;;;;;;;5071475;28;20366;-86
2023/12/26 19:13:27;;;;;;;;;;;;;;;;;;5079930;28;19913;-85
2023/12/26 19:15:52;;;;;;;;;;;;;;;;;;5075579;28;19912;-85
2023/12/26 19:18:18;;;;;;;;;;;;;;;;;;5075857;28;19909;-85
2023/12/26 19:20:43;;;;;;;;;;;;;;;;;;5075172;28;19908;-85
2023/12/26 19:23:08;;;;;;;;;;;;;;;;;;5075148;28;19931;-85
2023/12/26 19:25:33;;;;;;;;;;;;;;;;;;5073142;28;20375;-85
2023/12/26 19:27:58;;;;;;;;;;;;;;;;;;5070048;28;19967;-85
2023/12/26 19:30:28;;;;;;;;;;;;;;;;;;5074368;28;20374;-87